sensor_id;sensor_type;location;lat;lon;timestamp;temperature;humidity
3406;DHT22;10008;48.682;9.016;2023-04-24T07:34:47;10.20;99.90
3406;DHT22;10008;48.682;9.016;2023-04-24T07:37:13;14.50;99.90
3406;DHT22;10008;48.682;9.016;2023-04-24T07:39:39;15.00;99.90
3406;DHT22;10008;48.682;9.016;2023-04-24T07:42:04;14.80;99.90
3406;DHT22;10008;48.682;9.016;2023-04-24T07:44:30;14.40;99.90
3406;DHT22;10008;48.682;9.016;2023-04-24T07:46:57;13.70;99.90
3406;DHT22;10008;48.682;9.016;2023-04-24T07:49:23;13.90;99.90
3406;DHT22;10008;48.682;9.016;2023-04-24T07:51:49;13.30;99.90
3406;DHT22;10008;48.682;9.016;2023-04-24T07:54:15;12.50;99.90
3406;DHT22;10008;48.682;9.016;2023-04-24T07:56:43;12.60;99.90
3406;DHT22;10008;48.682;9.016;2023-04-24T07:59:10;12.30;99.90
3406;DHT22;10008;48.682;9.016;2023-04-24T08:01:36;12.40;99.90
3406;DHT22;10008;48.682;9.016;2023-04-24T08:04:02;12.40;99.90
3406;DHT22;10008;48.682;9.016;2023-04-24T08:06:29;12.60;99.90
3406;DHT22;10008;48.682;9.016;2023-04-24T08:08:56;12.50;99.90
3406;DHT22;10008;48.682;9.016;2023-04-24T08:11:22;11.90;99.90
3406;DHT22;10008;48.682;9.016;2023-04-24T08:13:47;11.70;99.90
3406;DHT22;10008;48.682;9.016;2023-04-24T08:16:13;11.70;99.90
3406;DHT22;10008;48.682;9.016;2023-04-24T08:18:39;11.90;99.90
3406;DHT22;10008;48.682;9.016;2023-04-24T08:21:05;12.20;99.90
3406;DHT22;10008;48.682;9.016;2023-04-24T08:23:30;12.50;99.90
3406;DHT22;10008;48.682;9.016;2023-04-24T08:25:57;12.70;99.90
3406;DHT22;10008;48.682;9.016;2023-04-24T08:28:23;12.80;99.90
3406;DHT22;10008;48.682;9.016;2023-04-24T08:30:49;13.10;99.90
3406;DHT22;10008;48.682;9.016;2023-04-24T08:33:21;13.30;99.90
3406;DHT22;10008;48.682;9.016;2023-04-24T08:35:46;13.60;99.90
3406;DHT22;10008;48.682;9.016;2023-04-24T08:38:12;13.30;99.90
3406;DHT22;10008;48.682;9.016;2023-04-24T08:40:38;12.30;99.90
3406;DHT22;10008;48.682;9.016;2023-04-24T08:43:05;12.00;99.90
3406;DHT22;10008;48.682;9.016;2023-04-24T08:45:32;11.70;99.90
3406;DHT22;10008;48.682;9.016;2023-04-24T08:47:58;11.00;99.90
3406;DHT22;10008;48.682;9.016;2023-04-24T08:50:25;11.00;99.90
3406;DHT22;10008;48.682;9.016;2023-04-24T08:52:51;11.10;99.90
3406;DHT22;10008;48.682;9.016;2023-04-24T08:55:20;11.10;99.90
3406;DHT22;10008;48.682;9.016;2023-04-24T08:57:50;11.00;99.90
3406;DHT22;10008;48.682;9.016;2023-04-24T09:00:18;11.80;99.90
3406;DHT22;10008;48.682;9.016;2023-04-24T09:02:44;12.20;99.90
3406;DHT22;10008;48.682;9.016;2023-04-24T09:05:13;12.20;99.90
3406;DHT22;10008;48.682;9.016;2023-04-24T09:07:41;12.30;99.90
3406;DHT22;10008;48.682;9.016;2023-04-24T09:10:10;12.40;99.90
3406;DHT22;10008;48.682;9.016;2023-04-24T09:12:36;12.00;99.90
3406;DHT22;10008;48.682;9.016;2023-04-24T09:15:02;11.90;99.90
3406;DHT22;10008;48.682;9.016;2023-04-24T09:17:30;12.20;99.90
3406;DHT22;10008;48.682;9.016;2023-04-24T09:19:56;13.30;98.30
3406;DHT22;10008;48.682;9.016;2023-04-24T09:22:22;13.90;96.80
3406;DHT22;10008;48.682;9.016;2023-04-24T09:24:48;14.10;95.80
3406;DHT22;10008;48.682;9.016;2023-04-24T09:27:14;13.80;95.90
3406;DHT22;10008;48.682;9.016;2023-04-24T09:29:56;14.20;96.40
3406;DHT22;10008;48.682;9.016;2023-04-24T09:32:23;15.30;93.70
3406;DHT22;10008;48.682;9.016;2023-04-24T09:35:06;15.40;92.20
3406;DHT22;10008;48.682;9.016;2023-04-24T09:37:36;15.40;91.50
3406;DHT22;10008;48.682;9.016;2023-04-24T09:40:12;15.50;90.30
3406;DHT22;10008;48.682;9.016;2023-04-24T09:42:39;14.40;91.90
3406;DHT22;10008;48.682;9.016;2023-04-24T09:45:09;13.60;92.40
3406;DHT22;10008;48.682;9.016;2023-04-24T09:47:40;13.30;94.00
3406;DHT22;10008;48.682;9.016;2023-04-24T09:50:16;13.10;93.30
3406;DHT22;10008;48.682;9.016;2023-04-24T09:52:46;12.70;92.60
3406;DHT22;10008;48.682;9.016;2023-04-24T09:55:18;12.20;93.50
3406;DHT22;10008;48.682;9.016;2023-04-24T09:57:56;12.00;94.40
3406;DHT22;10008;48.682;9.016;2023-04-24T10:00:23;11.90;94.70
3406;DHT22;10008;48.682;9.016;2023-04-24T10:03:00;12.40;94.70
3406;DHT22;10008;48.682;9.016;2023-04-24T10:05:31;13.20;93.40
3406;DHT22;10008;48.682;9.016;2023-04-24T10:08:07;14.40;92.20
3406;DHT22;10008;48.682;9.016;2023-04-24T10:10:38;15.10;91.30
3406;DHT22;10008;48.682;9.016;2023-04-24T10:13:04;15.70;89.40
3406;DHT22;10008;48.682;9.016;2023-04-24T10:15:30;15.70;89.50
3406;DHT22;10008;48.682;9.016;2023-04-24T10:17:58;16.00;87.10
3406;DHT22;10008;48.682;9.016;2023-04-24T10:20:29;16.20;87.50
3406;DHT22;10008;48.682;9.016;2023-04-24T10:22:57;15.40;87.50
3406;DHT22;10008;48.682;9.016;2023-04-24T10:25:25;14.60;90.90
3406;DHT22;10008;48.682;9.016;2023-04-24T10:27:52;13.90;90.40
3406;DHT22;10008;48.682;9.016;2023-04-24T10:30:19;13.50;92.30
3406;DHT22;10008;48.682;9.016;2023-04-24T10:32:45;12.90;92.90
3406;DHT22;10008;48.682;9.016;2023-04-24T10:35:13;12.80;94.00
3406;DHT22;10008;48.682;9.016;2023-04-24T10:37:46;12.90;94.50
3406;DHT22;10008;48.682;9.016;2023-04-24T10:40:32;13.20;94.00
3406;DHT22;10008;48.682;9.016;2023-04-24T10:42:59;13.10;94.60
3406;DHT22;10008;48.682;9.016;2023-04-24T10:45:25;12.90;94.20
3406;DHT22;10008;48.682;9.016;2023-04-24T10:47:58;13.10;94.20
3406;DHT22;10008;48.682;9.016;2023-04-24T10:50:26;12.90;94.20
3406;DHT22;10008;48.682;9.016;2023-04-24T10:52:53;12.50;94.80
3406;DHT22;10008;48.682;9.016;2023-04-24T10:58:06;12.40;95.30
3406;DHT22;10008;48.682;9.016;2023-04-24T11:00:32;12.70;95.00
3406;DHT22;10008;48.682;9.016;2023-04-24T11:02:58;12.50;95.80
3406;DHT22;10008;48.682;9.016;2023-04-24T11:08:22;13.00;95.80
3406;DHT22;10008;48.682;9.016;2023-04-24T11:11:03;13.10;94.60
3406;DHT22;10008;48.682;9.016;2023-04-24T11:22:03;12.40;94.70
3406;DHT22;10008;48.682;9.016;2023-04-24T11:24:39;12.50;96.20
3406;DHT22;10008;48.682;9.016;2023-04-24T11:27:19;12.40;96.50
3406;DHT22;10008;48.682;9.016;2023-04-24T11:32:39;11.50;98.40
3406;DHT22;10008;48.682;9.016;2023-04-24T11:37:44;11.20;99.90
3406;DHT22;10008;48.682;9.016;2023-04-24T11:40:19;11.30;99.90
3406;DHT22;10008;48.682;9.016;2023-04-24T11:42:49;11.40;99.20
3406;DHT22;10008;48.682;9.016;2023-04-24T11:45:20;11.20;98.30
3406;DHT22;10008;48.682;9.016;2023-04-24T11:47:46;11.20;99.70
3406;DHT22;10008;48.682;9.016;2023-04-24T11:50:17;11.50;98.90
3406;DHT22;10008;48.682;9.016;2023-04-24T11:52:48;11.80;99.50
3406;DHT22;10008;48.682;9.016;2023-04-24T11:57:43;12.10;97.70
3406;DHT22;10008;48.682;9.016;2023-04-24T12:00:16;12.00;98.30
3406;DHT22;10008;48.682;9.016;2023-04-24T12:02:42;11.70;98.30
3406;DHT22;10008;48.682;9.016;2023-04-24T12:05:08;11.40;99.90
3406;DHT22;10008;48.682;9.016;2023-04-24T12:07:41;11.10;99.20
3406;DHT22;10008;48.682;9.016;2023-04-24T12:10:10;11.10;99.90
3406;DHT22;10008;48.682;9.016;2023-04-24T12:12:36;10.80;99.60
3406;DHT22;10008;48.682;9.016;2023-04-24T12:15:07;10.90;99.40
3406;DHT22;10008;48.682;9.016;2023-04-24T12:17:34;11.00;99.90
3406;DHT22;10008;48.682;9.016;2023-04-24T12:20:06;11.10;98.40
3406;DHT22;10008;48.682;9.016;2023-04-24T12:22:51;11.20;98.90
3406;DHT22;10008;48.682;9.016;2023-04-24T12:25:21;11.50;99.30
3406;DHT22;10008;48.682;9.016;2023-04-24T12:27:53;11.90;98.80
3406;DHT22;10008;48.682;9.016;2023-04-24T12:30:19;11.80;98.70
3406;DHT22;10008;48.682;9.016;2023-04-24T12:32:47;12.10;98.60
3406;DHT22;10008;48.682;9.016;2023-04-24T12:35:14;12.30;98.40
3406;DHT22;10008;48.682;9.016;2023-04-24T12:37:44;12.10;98.20
3406;DHT22;10008;48.682;9.016;2023-04-24T12:40:10;12.10;98.70
3406;DHT22;10008;48.682;9.016;2023-04-24T12:42:43;12.00;98.40
3406;DHT22;10008;48.682;9.016;2023-04-24T12:45:09;11.90;98.40
3406;DHT22;10008;48.682;9.016;2023-04-24T12:47:38;11.60;99.10
3406;DHT22;10008;48.682;9.016;2023-04-24T12:50:04;11.40;98.80
3406;DHT22;10008;48.682;9.016;2023-04-24T12:52:31;11.40;99.20
3406;DHT22;10008;48.682;9.016;2023-04-24T12:54:59;11.50;99.90
3406;DHT22;10008;48.682;9.016;2023-04-24T12:57:27;11.30;99.90
3406;DHT22;10008;48.682;9.016;2023-04-24T12:59:54;11.20;99.90
3406;DHT22;10008;48.682;9.016;2023-04-24T13:02:22;11.10;99.90
3406;DHT22;10008;48.682;9.016;2023-04-24T13:04:49;11.10;99.90
3406;DHT22;10008;48.682;9.016;2023-04-24T13:07:15;11.20;99.90
3406;DHT22;10008;48.682;9.016;2023-04-24T13:09:42;11.20;99.90
3406;DHT22;10008;48.682;9.016;2023-04-24T13:12:08;11.20;99.90
3406;DHT22;10008;48.682;9.016;2023-04-24T13:14:35;11.20;99.90
3406;DHT22;10008;48.682;9.016;2023-04-24T13:17:01;11.50;99.90
3406;DHT22;10008;48.682;9.016;2023-04-24T13:19:27;11.60;99.90
3406;DHT22;10008;48.682;9.016;2023-04-24T13:21:54;11.70;99.90
3406;DHT22;10008;48.682;9.016;2023-04-24T13:24:21;11.40;99.90
3406;DHT22;10008;48.682;9.016;2023-04-24T13:26:50;11.20;99.90
3406;DHT22;10008;48.682;9.016;2023-04-24T13:29:17;10.60;99.90
3406;DHT22;10008;48.682;9.016;2023-04-24T13:31:42;10.30;99.90
3406;DHT22;10008;48.682;9.016;2023-04-24T13:34:08;10.30;99.90
3406;DHT22;10008;48.682;9.016;2023-04-24T13:36:34;10.30;99.90
3406;DHT22;10008;48.682;9.016;2023-04-24T13:39:00;10.30;99.90
3406;DHT22;10008;48.682;9.016;2023-04-24T13:41:26;10.30;99.90
3406;DHT22;10008;48.682;9.016;2023-04-24T13:43:52;10.10;99.90
3406;DHT22;10008;48.682;9.016;2023-04-24T13:46:18;10.10;99.90
3406;DHT22;10008;48.682;9.016;2023-04-24T13:48:43;10.40;99.90
3406;DHT22;10008;48.682;9.016;2023-04-24T13:51:09;10.90;99.90
3406;DHT22;10008;48.682;9.016;2023-04-24T13:53:35;11.20;99.90
3406;DHT22;10008;48.682;9.016;2023-04-24T13:56:04;11.30;99.90
3406;DHT22;10008;48.682;9.016;2023-04-24T13:58:31;11.30;99.90
3406;DHT22;10008;48.682;9.016;2023-04-24T14:00:57;11.50;99.90
3406;DHT22;10008;48.682;9.016;2023-04-24T14:03:23;11.50;99.90
3406;DHT22;10008;48.682;9.016;2023-04-24T14:05:49;11.50;99.90
3406;DHT22;10008;48.682;9.016;2023-04-24T14:08:15;11.50;99.90
3406;DHT22;10008;48.682;9.016;2023-04-24T14:10:42;11.30;99.90
3406;DHT22;10008;48.682;9.016;2023-04-24T14:13:08;11.30;99.90
3406;DHT22;10008;48.682;9.016;2023-04-24T14:15:35;10.80;99.90
3406;DHT22;10008;48.682;9.016;2023-04-24T14:18:01;10.10;99.90
3406;DHT22;10008;48.682;9.016;2023-04-24T14:20:27;9.70;99.90
3406;DHT22;10008;48.682;9.016;2023-04-24T14:22:53;9.50;99.90
3406;DHT22;10008;48.682;9.016;2023-04-24T14:25:18;9.50;99.90
3406;DHT22;10008;48.682;9.016;2023-04-24T14:27:44;9.70;99.90
3406;DHT22;10008;48.682;9.016;2023-04-24T14:30:11;10.00;99.90
3406;DHT22;10008;48.682;9.016;2023-04-24T14:32:39;10.30;99.90
3406;DHT22;10008;48.682;9.016;2023-04-24T14:35:05;10.70;99.90
3406;DHT22;10008;48.682;9.016;2023-04-24T14:37:32;10.60;99.90
3406;DHT22;10008;48.682;9.016;2023-04-24T14:39:57;10.60;99.90
3406;DHT22;10008;48.682;9.016;2023-04-24T14:42:23;10.50;99.90
3406;DHT22;10008;48.682;9.016;2023-04-24T14:44:51;10.70;99.90
3406;DHT22;10008;48.682;9.016;2023-04-24T14:47:16;11.00;99.90
3406;DHT22;10008;48.682;9.016;2023-04-24T14:49:50;11.40;99.90
3406;DHT22;10008;48.682;9.016;2023-04-24T14:52:16;11.80;99.90
3406;DHT22;10008;48.682;9.016;2023-04-24T14:54:42;12.00;99.90
3406;DHT22;10008;48.682;9.016;2023-04-24T14:57:08;12.00;99.90
3406;DHT22;10008;48.682;9.016;2023-04-24T14:59:34;12.00;99.90
3406;DHT22;10008;48.682;9.016;2023-04-24T15:02:00;11.70;99.90
3406;DHT22;10008;48.682;9.016;2023-04-24T15:04:26;11.60;99.90
3406;DHT22;10008;48.682;9.016;2023-04-24T15:06:52;11.60;99.90
3406;DHT22;10008;48.682;9.016;2023-04-24T15:09:22;11.40;99.90
3406;DHT22;10008;48.682;9.016;2023-04-24T15:11:49;11.10;99.90
3406;DHT22;10008;48.682;9.016;2023-04-24T15:14:16;11.10;99.90
3406;DHT22;10008;48.682;9.016;2023-04-24T15:16:42;10.90;99.90
3406;DHT22;10008;48.682;9.016;2023-04-24T15:19:08;10.90;99.90
3406;DHT22;10008;48.682;9.016;2023-04-24T15:21:36;10.90;99.90
3406;DHT22;10008;48.682;9.016;2023-04-24T15:24:02;10.80;99.90
3406;DHT22;10008;48.682;9.016;2023-04-24T15:26:27;10.60;99.90
3406;DHT22;10008;48.682;9.016;2023-04-24T15:28:53;10.60;99.90
3406;DHT22;10008;48.682;9.016;2023-04-24T15:31:20;10.60;99.90
3406;DHT22;10008;48.682;9.016;2023-04-24T15:33:47;10.60;99.90
3406;DHT22;10008;48.682;9.016;2023-04-24T15:36:15;10.60;99.90
3406;DHT22;10008;48.682;9.016;2023-04-24T15:38:42;10.60;99.90
3406;DHT22;10008;48.682;9.016;2023-04-24T15:41:08;10.70;99.90
3406;DHT22;10008;48.682;9.016;2023-04-24T15:43:34;10.80;99.90
3406;DHT22;10008;48.682;9.016;2023-04-24T15:46:03;10.90;99.90
3406;DHT22;10008;48.682;9.016;2023-04-24T15:48:29;11.00;99.90
3406;DHT22;10008;48.682;9.016;2023-04-24T15:50:55;11.10;99.90
3406;DHT22;10008;48.682;9.016;2023-04-24T15:53:20;11.20;99.90
3406;DHT22;10008;48.682;9.016;2023-04-24T15:55:51;11.30;99.90
3406;DHT22;10008;48.682;9.016;2023-04-24T15:58:18;11.70;99.90
3406;DHT22;10008;48.682;9.016;2023-04-24T16:00:44;11.90;99.90
3406;DHT22;10008;48.682;9.016;2023-04-24T16:03:09;12.30;99.90
3406;DHT22;10008;48.682;9.016;2023-04-24T16:05:35;12.40;99.90
3406;DHT22;10008;48.682;9.016;2023-04-24T16:08:01;12.30;99.90
3406;DHT22;10008;48.682;9.016;2023-04-24T16:10:27;12.30;99.90
3406;DHT22;10008;48.682;9.016;2023-04-24T16:12:53;12.30;99.90
3406;DHT22;10008;48.682;9.016;2023-04-24T16:15:22;12.10;99.90
3406;DHT22;10008;48.682;9.016;2023-04-24T16:17:49;12.10;99.90
3406;DHT22;10008;48.682;9.016;2023-04-24T16:20:15;12.10;99.90
3406;DHT22;10008;48.682;9.016;2023-04-24T16:22:40;12.10;99.90
3406;DHT22;10008;48.682;9.016;2023-04-24T16:25:07;12.00;99.90
3406;DHT22;10008;48.682;9.016;2023-04-24T16:27:34;12.00;99.80
3406;DHT22;10008;48.682;9.016;2023-04-24T16:29:59;11.90;99.60
3406;DHT22;10008;48.682;9.016;2023-04-24T16:32:26;11.90;99.10
3406;DHT22;10008;48.682;9.016;2023-04-24T16:34:52;11.90;99.90
3406;DHT22;10008;48.682;9.016;2023-04-24T16:37:18;11.70;99.70
3406;DHT22;10008;48.682;9.016;2023-04-24T16:39:45;11.60;99.80
3406;DHT22;10008;48.682;9.016;2023-04-24T16:42:15;11.30;99.70
3406;DHT22;10008;48.682;9.016;2023-04-24T16:44:42;11.30;99.90
3406;DHT22;10008;48.682;9.016;2023-04-24T16:47:09;11.30;99.90
3406;DHT22;10008;48.682;9.016;2023-04-24T16:49:36;11.30;99.90
3406;DHT22;10008;48.682;9.016;2023-04-24T16:52:02;11.30;99.90
3406;DHT22;10008;48.682;9.016;2023-04-24T16:54:28;11.40;99.90
3406;DHT22;10008;48.682;9.016;2023-04-24T16:57:01;11.40;99.90
3406;DHT22;10008;48.682;9.016;2023-04-24T16:59:29;11.50;99.90
3406;DHT22;10008;48.682;9.016;2023-04-24T17:01:57;11.50;99.90
3406;DHT22;10008;48.682;9.016;2023-04-24T17:04:23;11.50;99.70
3406;DHT22;10008;48.682;9.016;2023-04-24T17:06:49;11.50;99.30
3406;DHT22;10008;48.682;9.016;2023-04-24T17:09:16;11.50;99.90
3406;DHT22;10008;48.682;9.016;2023-04-24T17:11:42;11.60;99.70
3406;DHT22;10008;48.682;9.016;2023-04-24T17:14:08;11.60;99.00
3406;DHT22;10008;48.682;9.016;2023-04-24T17:16:34;11.50;98.80
3406;DHT22;10008;48.682;9.016;2023-04-24T17:19:01;11.50;99.50
3406;DHT22;10008;48.682;9.016;2023-04-24T17:21:26;11.50;99.80
3406;DHT22;10008;48.682;9.016;2023-04-24T17:23:53;11.50;99.90
3406;DHT22;10008;48.682;9.016;2023-04-24T17:26:19;11.40;99.90
3406;DHT22;10008;48.682;9.016;2023-04-24T17:28:44;11.40;99.90
3406;DHT22;10008;48.682;9.016;2023-04-24T17:31:10;11.50;99.90
3406;DHT22;10008;48.682;9.016;2023-04-24T17:33:36;11.30;99.80
3406;DHT22;10008;48.682;9.016;2023-04-24T17:36:02;11.20;99.60
3406;DHT22;10008;48.682;9.016;2023-04-24T17:38:28;11.20;99.90
3406;DHT22;10008;48.682;9.016;2023-04-24T17:40:55;11.10;99.90
3406;DHT22;10008;48.682;9.016;2023-04-24T17:43:22;11.00;99.90
3406;DHT22;10008;48.682;9.016;2023-04-24T17:45:51;10.90;99.90
3406;DHT22;10008;48.682;9.016;2023-04-24T17:48:18;10.80;99.90
3406;DHT22;10008;48.682;9.016;2023-04-24T17:50:44;10.80;99.90
3406;DHT22;10008;48.682;9.016;2023-04-24T17:53:11;10.70;99.90
3406;DHT22;10008;48.682;9.016;2023-04-24T17:55:37;10.70;99.90
3406;DHT22;10008;48.682;9.016;2023-04-24T17:58:04;10.60;99.90
3406;DHT22;10008;48.682;9.016;2023-04-24T18:00:33;10.60;99.90
3406;DHT22;10008;48.682;9.016;2023-04-24T18:03:00;10.60;99.90
3406;DHT22;10008;48.682;9.016;2023-04-24T18:05:30;10.50;99.90
3406;DHT22;10008;48.682;9.016;2023-04-24T18:07:57;10.40;99.90
3406;DHT22;10008;48.682;9.016;2023-04-24T18:10:24;10.40;99.90
3406;DHT22;10008;48.682;9.016;2023-04-24T18:12:50;10.40;99.90
3406;DHT22;10008;48.682;9.016;2023-04-24T18:15:20;10.20;99.90
3406;DHT22;10008;48.682;9.016;2023-04-24T18:17:46;10.20;99.90
3406;DHT22;10008;48.682;9.016;2023-04-24T18:50:38;10.10;99.90
3406;DHT22;10008;48.682;9.016;2023-04-24T18:53:06;10.00;99.90
3406;DHT22;10008;48.682;9.016;2023-04-24T18:55:34;9.90;99.90
3406;DHT22;10008;48.682;9.016;2023-04-24T18:58:01;9.80;99.90
3406;DHT22;10008;48.682;9.016;2023-04-24T19:00:26;9.70;99.90
3406;DHT22;10008;48.682;9.016;2023-04-24T19:02:53;9.60;99.90
3406;DHT22;10008;48.682;9.016;2023-04-24T19:05:19;9.40;99.90
3406;DHT22;10008;48.682;9.016;2023-04-24T19:07:44;9.30;99.90
3406;DHT22;10008;48.682;9.016;2023-04-24T19:10:10;9.20;99.90
3406;DHT22;10008;48.682;9.016;2023-04-24T19:12:37;9.10;99.90
3406;DHT22;10008;48.682;9.016;2023-04-24T19:15:03;9.00;99.90
3406;DHT22;10008;48.682;9.016;2023-04-24T19:17:29;8.90;99.90
3406;DHT22;10008;48.682;9.016;2023-04-24T19:19:56;8.90;99.90
3406;DHT22;10008;48.682;9.016;2023-04-24T19:22:22;8.70;99.90
3406;DHT22;10008;48.682;9.016;2023-04-24T19:24:48;8.70;99.90
3406;DHT22;10008;48.682;9.016;2023-04-24T19:27:14;8.60;99.90
3406;DHT22;10008;48.682;9.016;2023-04-24T19:29:39;8.50;99.90
3406;DHT22;10008;48.682;9.016;2023-04-24T19:32:06;8.50;99.90
3406;DHT22;10008;48.682;9.016;2023-04-24T19:34:32;8.50;99.90
3406;DHT22;10008;48.682;9.016;2023-04-24T19:36:59;8.40;99.90
3406;DHT22;10008;48.682;9.016;2023-04-24T19:39:25;8.40;99.90
3406;DHT22;10008;48.682;9.016;2023-04-24T19:41:51;8.30;99.90
3406;DHT22;10008;48.682;9.016;2023-04-24T19:44:17;8.30;99.90
3406;DHT22;10008;48.682;9.016;2023-04-24T19:46:43;8.30;99.90
3406;DHT22;10008;48.682;9.016;2023-04-24T19:49:08;8.30;99.90
3406;DHT22;10008;48.682;9.016;2023-04-24T19:51:34;8.20;99.90
3406;DHT22;10008;48.682;9.016;2023-04-24T19:54:00;8.20;99.90
3406;DHT22;10008;48.682;9.016;2023-04-24T19:56:27;8.20;99.90
3406;DHT22;10008;48.682;9.016;2023-04-24T19:58:52;8.20;99.90
3406;DHT22;10008;48.682;9.016;2023-04-24T20:01:18;8.20;99.90
3406;DHT22;10008;48.682;9.016;2023-04-24T20:03:44;8.20;99.90
3406;DHT22;10008;48.682;9.016;2023-04-24T20:06:09;8.20;99.90
3406;DHT22;10008;48.682;9.016;2023-04-24T20:08:35;8.10;99.90
3406;DHT22;10008;48.682;9.016;2023-04-24T20:11:04;8.00;99.90
3406;DHT22;10008;48.682;9.016;2023-04-24T20:13:30;8.00;99.90
3406;DHT22;10008;48.682;9.016;2023-04-24T20:15:58;8.00;99.90
3406;DHT22;10008;48.682;9.016;2023-04-24T20:18:23;8.00;99.90
3406;DHT22;10008;48.682;9.016;2023-04-24T20:20:49;8.00;99.90
3406;DHT22;10008;48.682;9.016;2023-04-24T20:23:18;8.10;99.90
3406;DHT22;10008;48.682;9.016;2023-04-24T20:25:44;8.00;99.90
3406;DHT22;10008;48.682;9.016;2023-04-24T20:28:09;8.00;99.90
3406;DHT22;10008;48.682;9.016;2023-04-24T20:30:36;8.00;99.90
3406;DHT22;10008;48.682;9.016;2023-04-24T20:33:02;8.00;99.90
3406;DHT22;10008;48.682;9.016;2023-04-24T20:35:28;8.00;99.90
3406;DHT22;10008;48.682;9.016;2023-04-24T20:37:53;8.00;99.90
3406;DHT22;10008;48.682;9.016;2023-04-24T20:40:19;8.00;99.90
3406;DHT22;10008;48.682;9.016;2023-04-24T20:42:46;8.10;99.90
3406;DHT22;10008;48.682;9.016;2023-04-24T20:45:12;8.20;99.90
3406;DHT22;10008;48.682;9.016;2023-04-24T20:47:38;8.20;99.90
3406;DHT22;10008;48.682;9.016;2023-04-24T20:50:04;8.20;99.90
3406;DHT22;10008;48.682;9.016;2023-04-24T20:52:30;8.20;99.90
3406;DHT22;10008;48.682;9.016;2023-04-24T20:54:57;8.10;99.90
3406;DHT22;10008;48.682;9.016;2023-04-24T20:57:23;8.20;99.90
3406;DHT22;10008;48.682;9.016;2023-04-24T20:59:48;8.30;99.90
3406;DHT22;10008;48.682;9.016;2023-04-24T21:02:14;8.20;99.90
3406;DHT22;10008;48.682;9.016;2023-04-24T21:04:40;8.20;99.90
3406;DHT22;10008;48.682;9.016;2023-04-24T21:07:05;8.20;99.90
3406;DHT22;10008;48.682;9.016;2023-04-24T21:09:33;8.30;99.90
3406;DHT22;10008;48.682;9.016;2023-04-24T21:11:59;8.30;99.90
3406;DHT22;10008;48.682;9.016;2023-04-24T21:14:25;8.30;99.90
3406;DHT22;10008;48.682;9.016;2023-04-24T21:16:50;8.30;99.90
3406;DHT22;10008;48.682;9.016;2023-04-24T21:19:16;8.30;99.90
3406;DHT22;10008;48.682;9.016;2023-04-24T21:21:42;8.30;99.90
3406;DHT22;10008;48.682;9.016;2023-04-24T21:24:07;8.40;99.90
3406;DHT22;10008;48.682;9.016;2023-04-24T21:26:33;8.50;99.90
3406;DHT22;10008;48.682;9.016;2023-04-24T21:28:59;8.60;99.90
3406;DHT22;10008;48.682;9.016;2023-04-24T21:31:25;8.50;99.90
3406;DHT22;10008;48.682;9.016;2023-04-24T21:33:51;8.50;99.90
3406;DHT22;10008;48.682;9.016;2023-04-24T21:36:16;8.70;99.90
3406;DHT22;10008;48.682;9.016;2023-04-24T21:38:42;8.70;99.90
3406;DHT22;10008;48.682;9.016;2023-04-24T21:41:08;8.70;99.90
3406;DHT22;10008;48.682;9.016;2023-04-24T21:43:34;8.70;99.90
3406;DHT22;10008;48.682;9.016;2023-04-24T21:46:00;8.70;99.90
3406;DHT22;10008;48.682;9.016;2023-04-24T21:48:25;8.70;99.90
3406;DHT22;10008;48.682;9.016;2023-04-24T21:50:51;8.80;99.90
3406;DHT22;10008;48.682;9.016;2023-04-24T21:53:17;8.70;99.90
3406;DHT22;10008;48.682;9.016;2023-04-24T21:55:44;8.70;99.90
3406;DHT22;10008;48.682;9.016;2023-04-24T21:58:10;8.70;99.90
3406;DHT22;10008;48.682;9.016;2023-04-24T22:00:36;8.70;99.90
3406;DHT22;10008;48.682;9.016;2023-04-24T22:03:03;8.60;99.90
3406;DHT22;10008;48.682;9.016;2023-04-24T22:05:29;8.70;99.90
3406;DHT22;10008;48.682;9.016;2023-04-24T22:07:56;8.70;99.90
3406;DHT22;10008;48.682;9.016;2023-04-24T22:10:24;8.70;99.90
3406;DHT22;10008;48.682;9.016;2023-04-24T22:12:50;8.60;99.90
3406;DHT22;10008;48.682;9.016;2023-04-24T22:15:15;8.60;99.90
3406;DHT22;10008;48.682;9.016;2023-04-24T22:17:41;8.60;99.90
3406;DHT22;10008;48.682;9.016;2023-04-24T22:20:08;8.60;99.90
3406;DHT22;10008;48.682;9.016;2023-04-24T22:22:34;8.60;99.90
3406;DHT22;10008;48.682;9.016;2023-04-24T22:25:00;8.70;99.90
3406;DHT22;10008;48.682;9.016;2023-04-24T22:27:26;8.70;99.90
3406;DHT22;10008;48.682;9.016;2023-04-24T22:29:52;8.70;99.90
3406;DHT22;10008;48.682;9.016;2023-04-24T22:32:18;8.80;99.90
3406;DHT22;10008;48.682;9.016;2023-04-24T22:34:43;8.80;99.90
3406;DHT22;10008;48.682;9.016;2023-04-24T22:37:09;8.80;99.90
3406;DHT22;10008;48.682;9.016;2023-04-24T22:39:35;8.70;99.90
3406;DHT22;10008;48.682;9.016;2023-04-24T22:42:01;8.80;99.90
3406;DHT22;10008;48.682;9.016;2023-04-24T22:44:27;8.70;99.90
3406;DHT22;10008;48.682;9.016;2023-04-24T22:46:53;8.70;99.90
3406;DHT22;10008;48.682;9.016;2023-04-24T22:49:18;8.70;99.90
3406;DHT22;10008;48.682;9.016;2023-04-24T22:51:46;8.70;99.90
3406;DHT22;10008;48.682;9.016;2023-04-24T22:54:12;8.70;99.90
3406;DHT22;10008;48.682;9.016;2023-04-24T22:56:38;8.70;99.90
3406;DHT22;10008;48.682;9.016;2023-04-24T22:59:04;8.70;99.90
3406;DHT22;10008;48.682;9.016;2023-04-24T23:01:31;8.70;99.90
3406;DHT22;10008;48.682;9.016;2023-04-24T23:03:57;8.70;99.90
3406;DHT22;10008;48.682;9.016;2023-04-24T23:06:22;8.70;99.90
3406;DHT22;10008;48.682;9.016;2023-04-24T23:08:48;8.70;99.90
3406;DHT22;10008;48.682;9.016;2023-04-24T23:11:14;8.80;99.90
3406;DHT22;10008;48.682;9.016;2023-04-24T23:13:40;8.70;99.90
3406;DHT22;10008;48.682;9.016;2023-04-24T23:16:06;8.80;99.90
3406;DHT22;10008;48.682;9.016;2023-04-24T23:18:31;8.70;99.90
3406;DHT22;10008;48.682;9.016;2023-04-24T23:20:57;8.70;99.90
3406;DHT22;10008;48.682;9.016;2023-04-24T23:23:23;8.70;99.90
3406;DHT22;10008;48.682;9.016;2023-04-24T23:25:49;8.70;99.90
3406;DHT22;10008;48.682;9.016;2023-04-24T23:28:14;8.70;99.90
3406;DHT22;10008;48.682;9.016;2023-04-24T23:30:40;8.70;99.90
3406;DHT22;10008;48.682;9.016;2023-04-24T23:33:06;8.70;99.90
3406;DHT22;10008;48.682;9.016;2023-04-24T23:35:31;8.60;99.90
3406;DHT22;10008;48.682;9.016;2023-04-24T23:37:57;8.60;99.90
3406;DHT22;10008;48.682;9.016;2023-04-24T23:40:23;8.50;99.90
3406;DHT22;10008;48.682;9.016;2023-04-24T23:42:49;8.50;99.90
3406;DHT22;10008;48.682;9.016;2023-04-24T23:45:15;8.50;99.90
3406;DHT22;10008;48.682;9.016;2023-04-24T23:47:40;8.50;99.90
3406;DHT22;10008;48.682;9.016;2023-04-24T23:50:06;8.50;99.90
3406;DHT22;10008;48.682;9.016;2023-04-24T23:52:32;8.60;99.90
3406;DHT22;10008;48.682;9.016;2023-04-24T23:55:00;8.60;99.90
3406;DHT22;10008;48.682;9.016;2023-04-24T23:57:27;8.60;99.90
3406;DHT22;10008;48.682;9.016;2023-04-24T23:59:52;8.50;99.90
